createdAt,value
2019-06-26T00:02:20.281Z,95834.61
2019-06-26T00:04:47.657Z,95847.36
2019-06-26T00:07:15.002Z,95838.36
2019-06-26T00:09:42.399Z,95829.73
2019-06-26T00:12:09.840Z,95844.26
2019-06-26T00:14:38.822Z,95843.97
2019-06-26T00:17:06.512Z,95842.97
2019-06-26T00:19:33.924Z,95846.08
2019-06-26T00:22:01.303Z,95846.73
2019-06-26T00:24:28.700Z,95852.48
2019-06-26T00:26:56.087Z,95840.33
2019-06-26T00:29:23.508Z,95845.23
2019-06-26T00:31:51.111Z,95848.47
2019-06-26T00:34:18.486Z,95842.88
2019-06-26T00:36:45.897Z,95853.50
2019-06-26T00:39:13.285Z,95847.80
2019-06-26T00:41:40.655Z,95850.94
2019-06-26T00:44:08.023Z,95848.43
2019-06-26T00:46:35.532Z,95842.69
2019-06-26T00:49:03.136Z,95849.10
2019-06-26T00:51:30.531Z,95832.82
2019-06-26T00:53:58.043Z,95848.88
2019-06-26T00:56:25.399Z,95843.86
2019-06-26T00:58:52.826Z,95854.11
2019-06-26T01:01:20.224Z,95854.99
2019-06-26T01:03:49.954Z,95854.11
2019-06-26T01:06:35.761Z,95848.58
2019-06-26T01:09:04.466Z,95842.08
2019-06-26T01:11:31.844Z,95837.45
2019-06-26T01:13:59.254Z,95837.59
2019-06-26T01:16:26.665Z,95842.59
2019-06-26T01:18:53.999Z,95836.96
2019-06-26T01:21:21.563Z,95842.32
2019-06-26T01:23:48.929Z,95853.72
2019-06-26T01:26:16.282Z,95846.23
2019-06-26T01:28:43.691Z,95842.31
2019-06-26T01:31:11.148Z,95848.58
2019-06-26T01:33:38.494Z,95847.58
2019-06-26T01:36:05.880Z,95849.81
2019-06-26T01:38:33.293Z,95851.07
2019-06-26T01:41:00.686Z,95840.67
2019-06-26T01:43:28.079Z,95852.81
2019-06-26T01:45:56.148Z,95846.05
2019-06-26T01:48:23.545Z,95857.87
2019-06-26T01:50:50.903Z,95857.75
2019-06-26T01:53:18.302Z,95849.69
2019-06-26T01:55:46.010Z,95858.55
2019-06-26T01:58:13.446Z,95862.77
2019-06-26T02:00:40.796Z,95848.20
2019-06-26T02:03:08.174Z,95854.09
2019-06-26T02:05:35.686Z,95848.58
2019-06-26T02:08:03.079Z,95849.45
2019-06-26T02:10:30.445Z,95851.45
2019-06-26T02:12:57.835Z,95849.81
2019-06-26T02:15:25.234Z,95847.58
2019-06-26T02:17:52.638Z,95850.34
2019-06-26T02:20:20.076Z,95854.32
2019-06-26T02:22:49.673Z,95855.31
2019-06-26T02:25:16.849Z,95861.88
2019-06-26T02:27:44.366Z,95858.84
2019-06-26T02:30:12.105Z,95857.34
2019-06-26T02:32:39.491Z,95857.84
2019-06-26T02:35:09.974Z,95861.20
2019-06-26T02:37:37.005Z,95860.33
2019-06-26T02:40:05.173Z,95865.44
2019-06-26T02:42:32.563Z,95868.06
2019-06-26T02:44:59.915Z,95875.22
2019-06-26T02:47:27.333Z,95868.69
2019-06-26T02:49:54.861Z,95867.70
2019-06-26T02:52:22.281Z,95872.61
2019-06-26T02:54:50.105Z,95862.09
2019-06-26T02:57:17.797Z,95856.46
2019-06-26T02:59:45.191Z,95850.86
2019-06-26T03:02:12.656Z,95860.25
2019-06-26T03:04:40.041Z,95862.37
2019-06-26T03:07:07.535Z,95860.63
2019-06-26T03:09:34.895Z,95864.22
2019-06-26T03:12:02.268Z,95859.33
2019-06-26T03:14:29.694Z,95866.98
2019-06-26T03:16:57.074Z,95879.67
2019-06-26T03:19:24.469Z,95871.98
2019-06-26T03:21:51.955Z,95865.60
2019-06-26T03:24:19.356Z,95866.71
2019-06-26T03:26:46.750Z,95857.45
2019-06-26T03:29:14.129Z,95856.58
2019-06-26T03:31:41.527Z,95860.47
2019-06-26T03:34:08.915Z,95862.12
2019-06-26T03:36:36.264Z,95860.39
2019-06-26T03:39:05.426Z,95857.49
2019-06-26T03:41:32.932Z,95861.33
2019-06-26T03:44:00.277Z,95857.54
2019-06-26T03:46:27.730Z,95859.92
2019-06-26T03:48:55.145Z,95865.29
2019-06-26T03:51:22.496Z,95859.47
2019-06-26T03:53:49.916Z,95856.70
2019-06-26T03:56:17.292Z,95865.94
2019-06-26T03:58:44.737Z,95860.25
2019-06-26T04:01:12.165Z,95859.35
2019-06-26T04:03:39.585Z,95859.33
2019-06-26T04:06:06.955Z,95871.61
2019-06-26T04:08:34.335Z,95874.12
2019-06-26T04:11:01.718Z,95871.78
2019-06-26T04:13:29.078Z,95876.08
2019-06-26T04:15:56.496Z,95881.80
2019-06-26T04:18:23.893Z,95875.73
2019-06-26T04:20:51.404Z,95884.84
2019-06-26T04:23:18.857Z,95873.86
2019-06-26T04:25:46.261Z,95877.19
2019-06-26T04:28:13.672Z,95887.13
2019-06-26T04:30:41.207Z,95890.59
2019-06-26T04:33:08.651Z,95886.27
2019-06-26T04:35:36.103Z,95889.55
2019-06-26T04:38:03.783Z,95882.25
2019-06-26T04:40:31.134Z,95886.11
2019-06-26T04:42:58.534Z,95893.64
2019-06-26T04:45:25.884Z,95890.19
2019-06-26T04:47:53.406Z,95886.39
2019-06-26T04:50:21.126Z,95889.55
2019-06-26T04:52:48.484Z,95891.05
2019-06-26T04:55:15.996Z,95897.53
2019-06-26T04:57:43.426Z,95898.94
2019-06-26T05:00:11.471Z,95910.00
2019-06-26T05:02:38.953Z,95894.98
2019-06-26T05:05:08.165Z,95904.09
2019-06-26T05:07:35.562Z,95893.81
2019-06-26T05:10:03.311Z,95909.94
2019-06-26T05:12:30.736Z,95903.58
2019-06-26T05:14:58.176Z,95909.94
2019-06-26T05:17:25.612Z,95925.41
2019-06-26T05:19:53.004Z,95913.28
2019-06-26T05:22:20.544Z,95921.51
2019-06-26T05:24:47.935Z,95919.70
2019-06-26T05:27:15.333Z,95928.34
2019-06-26T05:29:42.720Z,95929.77
2019-06-26T05:32:10.104Z,95932.27
2019-06-26T05:34:37.570Z,95929.83
2019-06-26T05:37:05.039Z,95940.90
2019-06-26T05:39:32.459Z,95935.28
2019-06-26T05:41:59.979Z,95936.23
2019-06-26T05:44:27.409Z,95938.92
2019-06-26T05:46:54.904Z,95944.27
2019-06-26T05:49:22.476Z,95942.95
2019-06-26T05:51:49.890Z,95943.78
2019-06-26T05:54:17.305Z,95937.14
2019-06-26T05:56:45.579Z,95946.11
2019-06-26T05:59:13.112Z,95951.64
2019-06-26T06:01:40.588Z,95953.89
2019-06-26T06:04:08.009Z,95953.01
2019-06-26T06:06:41.813Z,95958.76
2019-06-26T06:09:05.891Z,95958.89
2019-06-26T06:11:33.397Z,95950.20
2019-06-26T06:14:00.806Z,95943.20
2019-06-26T06:16:28.224Z,95944.45
2019-06-26T06:18:55.620Z,95956.48
2019-06-26T06:21:23.048Z,95956.60
2019-06-26T06:23:50.451Z,95961.27
2019-06-26T06:26:17.853Z,95947.80
2019-06-26T06:28:45.263Z,95947.34
2019-06-26T06:31:12.690Z,95947.34
2019-06-26T06:33:40.093Z,95952.09
2019-06-26T06:36:09.782Z,95957.67
2019-06-26T06:38:36.910Z,95970.83
2019-06-26T06:41:04.371Z,95955.77
2019-06-26T06:43:31.782Z,95963.28
2019-06-26T06:45:59.206Z,95962.88
2019-06-26T06:48:26.621Z,95954.73
2019-06-26T06:50:54.232Z,95960.00
2019-06-26T06:53:21.620Z,95965.23
2019-06-26T06:55:49.061Z,95958.25
2019-06-26T06:58:16.466Z,95964.50
2019-06-26T07:00:43.988Z,95966.09
2019-06-26T07:03:11.492Z,95947.97
2019-06-26T07:05:38.903Z,95958.00
2019-06-26T07:08:06.294Z,95958.81
2019-06-26T07:10:33.649Z,95964.84
2019-06-26T07:13:01.052Z,95972.80
2019-06-26T07:15:28.425Z,95970.99
2019-06-26T07:17:55.936Z,95970.99
2019-06-26T07:20:23.328Z,95972.48
2019-06-26T07:22:50.714Z,95972.80
2019-06-26T07:25:18.131Z,95974.21
2019-06-26T07:27:45.508Z,95986.86
2019-06-26T07:30:13.253Z,95978.94
2019-06-26T07:32:40.668Z,95983.47
2019-06-26T07:35:08.150Z,95986.69
2019-06-26T07:37:35.519Z,95978.21
2019-06-26T07:40:03.644Z,95977.94
2019-06-26T07:42:31.046Z,95978.63
2019-06-26T07:44:58.457Z,95975.51
2019-06-26T07:47:41.964Z,95975.39
2019-06-26T07:49:55.255Z,95970.31
2019-06-26T07:52:22.725Z,95976.20
2019-06-26T07:54:50.129Z,95980.63
2019-06-26T07:57:17.541Z,95980.11
2019-06-26T07:59:44.954Z,95981.45
2019-06-26T08:02:12.371Z,95980.87
2019-06-26T08:04:39.803Z,95977.13
2019-06-26T08:07:07.223Z,95986.34
2019-06-26T08:09:34.595Z,95984.48
2019-06-26T08:12:02.065Z,95978.73
2019-06-26T08:14:29.458Z,95987.22
2019-06-26T08:16:56.827Z,95984.16
2019-06-26T08:19:24.254Z,95986.63
2019-06-26T08:21:51.639Z,95988.77
2019-06-26T08:24:19.060Z,95983.09
2019-06-26T08:26:46.395Z,95979.84
2019-06-26T08:29:13.868Z,95983.81
2019-06-26T08:31:41.285Z,95984.61
2019-06-26T08:34:08.760Z,95992.09
2019-06-26T08:36:36.157Z,95984.05
2019-06-26T08:39:05.296Z,95982.09
2019-06-26T08:41:32.682Z,95997.44
2019-06-26T08:44:00.126Z,96001.55
2019-06-26T08:46:27.457Z,95991.80
2019-06-26T08:48:54.852Z,96000.39
2019-06-26T08:51:22.620Z,96001.48
2019-06-26T08:53:49.995Z,96002.30
2019-06-26T08:56:17.386Z,95998.82
2019-06-26T08:58:44.785Z,96003.66
2019-06-26T09:01:12.141Z,96005.78
2019-06-26T09:03:42.005Z,96014.06
2019-06-26T09:06:08.834Z,96007.05
2019-06-26T09:08:36.312Z,96004.70
2019-06-26T09:11:03.855Z,96007.03
2019-06-26T09:13:31.286Z,96008.63
2019-06-26T09:15:58.732Z,96006.06
2019-06-26T09:18:35.497Z,96000.36
2019-06-26T09:20:55.531Z,96004.04
2019-06-26T09:23:23.031Z,96006.98
2019-06-26T09:25:50.399Z,96003.30
2019-06-26T09:28:17.830Z,96001.70
2019-06-26T09:30:45.251Z,96001.09
2019-06-26T09:33:12.686Z,96001.09
2019-06-26T09:35:40.023Z,96001.09
2019-06-26T09:38:07.474Z,95999.05
2019-06-26T09:40:34.874Z,95997.72
2019-06-26T09:43:02.280Z,95991.28
2019-06-26T09:45:29.695Z,95987.99
2019-06-26T09:47:57.129Z,95991.10
2019-06-26T09:50:25.045Z,95979.93
2019-06-26T09:52:52.512Z,95981.74
2019-06-26T09:55:19.988Z,95983.26
2019-06-26T09:57:47.437Z,95986.66
2019-06-26T10:00:16.397Z,95985.81
2019-06-26T10:02:43.785Z,95979.30
2019-06-26T10:05:11.735Z,95976.72
2019-06-26T10:07:39.122Z,95972.30
2019-06-26T10:10:06.959Z,95974.45
2019-06-26T10:12:34.453Z,95974.45
2019-06-26T10:15:02.017Z,95975.50
2019-06-26T10:17:29.468Z,95969.86
2019-06-26T10:19:56.948Z,95969.86
2019-06-26T10:22:24.329Z,95968.91
2019-06-26T10:24:51.942Z,95961.29
2019-06-26T10:27:19.305Z,95951.08
2019-06-26T10:29:46.728Z,95959.84
2019-06-26T10:32:14.146Z,95961.98
2019-06-26T10:34:41.608Z,95957.19
2019-06-26T10:37:08.988Z,95952.02
2019-06-26T10:39:36.407Z,95951.88
2019-06-26T10:42:03.982Z,95950.32
2019-06-26T10:44:31.549Z,95947.45
2019-06-26T10:46:58.979Z,95945.07
2019-06-26T10:49:27.914Z,95939.69
2019-06-26T10:51:55.642Z,95938.08
2019-06-26T10:54:23.049Z,95931.77
2019-06-26T10:56:50.389Z,95940.94
2019-06-26T10:59:17.781Z,95934.66
2019-06-26T11:01:45.260Z,95928.02
2019-06-26T11:04:12.676Z,95932.28
2019-06-26T11:06:40.173Z,95926.98
2019-06-26T11:09:07.777Z,95920.66
2019-06-26T11:11:35.435Z,95920.25
2019-06-26T11:14:03.100Z,95910.83
2019-06-26T11:16:30.600Z,95915.03
2019-06-26T11:18:58.120Z,95919.12
2019-06-26T11:21:25.482Z,95920.36
2019-06-26T11:23:52.872Z,95918.16
2019-06-26T11:26:20.296Z,95917.59
2019-06-26T11:28:47.742Z,95903.52
2019-06-26T11:31:15.276Z,95908.24
2019-06-26T11:33:42.789Z,95913.30
2019-06-26T11:36:10.254Z,95902.57
2019-06-26T11:38:37.625Z,95917.03
2019-06-26T11:41:05.054Z,95917.45
2019-06-26T11:43:32.547Z,95912.20
2019-06-26T11:46:00.026Z,95905.89
2019-06-26T11:48:27.433Z,95893.83
2019-06-26T11:50:55.001Z,95895.76
2019-06-26T11:53:22.451Z,95903.53
2019-06-26T11:55:49.823Z,95899.17
2019-06-26T11:58:17.239Z,95897.91
2019-06-26T12:00:44.656Z,95898.73
2019-06-26T12:03:13.330Z,95896.92
2019-06-26T12:05:41.076Z,95892.77
2019-06-26T12:08:08.627Z,95893.37
2019-06-26T12:10:36.002Z,95890.06
2019-06-26T12:13:04.387Z,95882.33
2019-06-26T12:15:32.096Z,95881.00
2019-06-26T12:17:59.629Z,95882.58
2019-06-26T12:20:27.052Z,95880.47
2019-06-26T12:22:54.512Z,95876.23
2019-06-26T12:25:22.117Z,95871.67
2019-06-26T12:27:49.520Z,95873.88
2019-06-26T12:30:16.999Z,95867.67
2019-06-26T12:33:01.578Z,95866.38
2019-06-26T12:35:14.597Z,95856.14
2019-06-26T12:37:42.112Z,95866.78
2019-06-26T12:40:09.894Z,95860.76
2019-06-26T12:42:37.332Z,95865.66
2019-06-26T12:45:05.591Z,95861.95
2019-06-26T12:47:33.114Z,95846.95
2019-06-26T12:50:01.037Z,95850.23
2019-06-26T12:52:28.529Z,95857.19
2019-06-26T12:54:55.922Z,95865.75
2019-06-26T12:57:23.327Z,95854.97
2019-06-26T12:59:57.416Z,95853.59
2019-06-26T13:02:20.089Z,95851.55
2019-06-26T13:04:47.523Z,95847.49
2019-06-26T13:07:14.910Z,95830.02
2019-06-26T13:09:42.369Z,95832.45
2019-06-26T13:12:09.830Z,95815.02
2019-06-26T13:14:37.261Z,95818.28
2019-06-26T13:17:04.761Z,95831.97
2019-06-26T13:19:32.201Z,95821.34
2019-06-26T13:21:59.805Z,95819.14
2019-06-26T13:24:27.243Z,95818.50
2019-06-26T13:26:54.784Z,95826.31
2019-06-26T13:29:22.310Z,95822.19
2019-06-26T13:31:49.855Z,95818.25
2019-06-26T13:34:17.242Z,95823.13
2019-06-26T13:36:44.642Z,95825.38
2019-06-26T13:39:11.994Z,95819.48
2019-06-26T13:41:39.466Z,95821.89
2019-06-26T13:44:06.885Z,95832.41
2019-06-26T13:46:34.247Z,95818.68
2019-06-26T13:49:01.734Z,95816.53
2019-06-26T13:51:29.242Z,95821.16
2019-06-26T13:53:56.576Z,95817.83
2019-06-26T13:56:24.003Z,95814.45
2019-06-26T13:58:51.472Z,95814.88
2019-06-26T14:01:18.856Z,95815.63
2019-06-26T14:03:46.266Z,95805.67
2019-06-26T14:06:13.674Z,95815.33
2019-06-26T14:08:41.049Z,95813.40
2019-06-26T14:11:08.452Z,95803.80
2019-06-26T14:13:35.922Z,95800.72
2019-06-26T14:16:03.593Z,95797.03
2019-06-26T14:18:30.995Z,95783.02
2019-06-26T14:20:58.451Z,95789.38
2019-06-26T14:23:25.814Z,95795.55
2019-06-26T14:25:53.288Z,95791.30
2019-06-26T14:28:20.669Z,95795.01
2019-06-26T14:30:48.092Z,95779.15
2019-06-26T14:33:15.528Z,95786.27
2019-06-26T14:35:42.973Z,95788.09
2019-06-26T14:38:10.642Z,95784.31
2019-06-26T14:40:38.050Z,95787.50
2019-06-26T14:43:05.467Z,95797.94
2019-06-26T14:45:32.880Z,95788.91
2019-06-26T14:48:00.310Z,95778.61
2019-06-26T14:50:27.777Z,95785.49
2019-06-26T14:52:55.404Z,95785.92
2019-06-26T14:55:22.828Z,95788.05
2019-06-26T14:57:50.292Z,95785.72
2019-06-26T15:00:17.799Z,95782.26
2019-06-26T15:02:45.372Z,95779.22
2019-06-26T15:05:13.641Z,95760.61
2019-06-26T15:07:41.040Z,95761.98
2019-06-26T15:10:09.000Z,95762.76
2019-06-26T15:12:36.520Z,95756.39
2019-06-26T15:15:04.383Z,95770.11
2019-06-26T15:17:31.791Z,95774.59
2019-06-26T15:19:59.215Z,95772.63
2019-06-26T15:22:26.608Z,95772.76
2019-06-26T15:24:54.062Z,95774.10
2019-06-26T15:27:21.492Z,95776.97
2019-06-26T15:29:48.960Z,95782.27
2019-06-26T15:32:16.390Z,95770.56
2019-06-26T15:34:43.871Z,95780.34
2019-06-26T15:37:11.312Z,95774.27
2019-06-26T15:39:38.734Z,95776.73
2019-06-26T15:42:06.178Z,95776.73
2019-06-26T15:44:33.635Z,95777.48
2019-06-26T15:47:01.051Z,95771.52
2019-06-26T15:49:28.456Z,95778.05
2019-06-26T15:51:56.130Z,95777.20
2019-06-26T15:54:23.526Z,95779.66
2019-06-26T15:56:50.986Z,95774.40
2019-06-26T15:59:18.436Z,95776.95
2019-06-26T16:01:46.003Z,95778.44
2019-06-26T16:04:13.385Z,95786.36
2019-06-26T16:06:40.815Z,95792.98
2019-06-26T16:09:08.222Z,95793.81
2019-06-26T16:11:35.655Z,95787.63
2019-06-26T16:14:03.449Z,95801.75
2019-06-26T16:16:31.940Z,95808.60
2019-06-26T16:19:04.315Z,95813.64
2019-06-26T16:21:31.713Z,95801.14
2019-06-26T16:23:59.289Z,95810.09
2019-06-26T16:26:26.731Z,95805.38
2019-06-26T16:28:54.148Z,95810.66
2019-06-26T16:31:21.487Z,95808.20
2019-06-26T16:33:48.895Z,95791.67
2019-06-26T16:36:16.325Z,95799.25
2019-06-26T16:38:43.732Z,95793.16
2019-06-26T16:41:11.170Z,95792.17
2019-06-26T16:43:38.560Z,95772.97
2019-06-26T16:46:05.999Z,95776.07
2019-06-26T16:48:33.435Z,95773.81
2019-06-26T16:51:00.884Z,95782.48
2019-06-26T16:53:28.318Z,95790.47
2019-06-26T16:55:55.756Z,95787.59
2019-06-26T16:58:23.486Z,95787.59
2019-06-26T17:00:50.874Z,95790.47
2019-06-26T17:03:18.316Z,95783.09
2019-06-26T17:05:45.728Z,95783.09
2019-06-26T17:08:13.190Z,95775.30
2019-06-26T17:10:40.589Z,95772.08
2019-06-26T17:13:07.989Z,95771.45
2019-06-26T17:15:35.382Z,95771.03
2019-06-26T17:18:02.825Z,95761.23
2019-06-26T17:20:30.429Z,95758.91
2019-06-26T17:23:05.809Z,95756.23
2019-06-26T17:25:27.151Z,95755.80
2019-06-26T17:27:54.656Z,95747.16
2019-06-26T17:30:22.190Z,95753.08
2019-06-26T17:32:49.639Z,95739.70
2019-06-26T17:35:17.167Z,95743.25
2019-06-26T17:37:44.626Z,95748.50
2019-06-26T17:40:13.389Z,95744.58
2019-06-26T17:42:40.873Z,95744.58
2019-06-26T17:45:08.446Z,95752.39
2019-06-26T17:47:35.845Z,95751.52
2019-06-26T17:50:04.527Z,95758.00
2019-06-26T17:52:35.644Z,95758.07
2019-06-26T17:55:01.504Z,95758.36
2019-06-26T17:57:28.928Z,95757.30
2019-06-26T17:59:56.398Z,95764.10
2019-06-26T18:02:23.829Z,95758.36
2019-06-26T18:04:51.216Z,95762.52
2019-06-26T18:07:18.648Z,95771.55
2019-06-26T18:09:46.055Z,95763.63
2019-06-26T18:12:13.455Z,95766.39
2019-06-26T18:14:43.186Z,95768.78
2019-06-26T18:17:21.501Z,95764.70
2019-06-26T18:19:39.626Z,95771.02
2019-06-26T18:22:07.028Z,95770.97
2019-06-26T18:24:34.384Z,95776.33
2019-06-26T18:27:01.806Z,95781.34
2019-06-26T18:29:29.214Z,95781.48
2019-06-26T18:31:56.574Z,95775.98
2019-06-26T18:34:23.983Z,95798.93
2019-06-26T18:36:51.375Z,95795.95
2019-06-26T18:39:18.833Z,95792.84
2019-06-26T18:41:46.711Z,95797.95
2019-06-26T18:44:14.107Z,95807.03
2019-06-26T18:46:41.453Z,95802.65
2019-06-26T18:49:09.040Z,95798.16
2019-06-26T18:51:36.459Z,95804.52
2019-06-26T18:54:04.367Z,95808.84
2019-06-26T18:56:31.882Z,95811.54
2019-06-26T18:58:59.273Z,95814.06
2019-06-26T19:01:26.673Z,95802.80
2019-06-26T19:03:54.258Z,95806.70
2019-06-26T19:06:21.753Z,95807.01
2019-06-26T19:08:49.152Z,95811.20
2019-06-26T19:11:16.571Z,95809.15
2019-06-26T19:13:43.948Z,95816.06
2019-06-26T19:16:11.405Z,95808.31
2019-06-26T19:18:38.795Z,95807.39
2019-06-26T19:21:06.130Z,95805.01
2019-06-26T19:23:33.543Z,95800.41
2019-06-26T19:26:00.930Z,95805.25
2019-06-26T19:28:28.402Z,95811.44
2019-06-26T19:30:55.806Z,95805.06
2019-06-26T19:33:23.199Z,95806.05
2019-06-26T19:35:50.561Z,95807.55
2019-06-26T19:38:17.949Z,95799.91
2019-06-26T19:40:45.311Z,95821.77
2019-06-26T19:43:12.745Z,95806.53
2019-06-26T19:45:40.190Z,95793.63
2019-06-26T19:48:07.690Z,95801.70
2019-06-26T19:50:35.435Z,95804.74
2019-06-26T19:53:02.927Z,95808.52
2019-06-26T19:55:30.392Z,95801.87
2019-06-26T19:57:57.766Z,95809.41
2019-06-26T20:00:25.426Z,95810.33
2019-06-26T20:02:52.859Z,95816.46
2019-06-26T20:05:20.526Z,95823.28
2019-06-26T20:07:47.943Z,95820.25
2019-06-26T20:10:15.722Z,95822.18
2019-06-26T20:12:43.140Z,95818.27
2019-06-26T20:15:10.784Z,95819.70
2019-06-26T20:17:38.227Z,95820.60
2019-06-26T20:20:05.904Z,95818.86
2019-06-26T20:22:33.325Z,95819.01
2019-06-26T20:25:00.724Z,95817.52
2019-06-26T20:27:28.127Z,95810.74
2019-06-26T20:29:55.505Z,95808.22
2019-06-26T20:32:24.181Z,95814.79
2019-06-26T20:34:51.713Z,95819.35
2019-06-26T20:37:19.132Z,95818.22
2019-06-26T20:39:46.501Z,95812.57
2019-06-26T20:42:13.945Z,95815.23
2019-06-26T20:44:41.339Z,95795.13
2019-06-26T20:47:08.739Z,95820.29
2019-06-26T20:49:51.970Z,95817.44
2019-06-26T20:52:05.512Z,95810.13
2019-06-26T20:54:33.014Z,95815.82
2019-06-26T20:57:00.889Z,95812.81
2019-06-26T20:59:28.280Z,95809.37
2019-06-26T21:01:55.672Z,95806.55
2019-06-26T21:04:23.055Z,95807.88
2019-06-26T21:06:50.467Z,95805.05
2019-06-26T21:09:18.146Z,95797.89
2019-06-26T21:11:45.574Z,95801.64
2019-06-26T21:14:13.112Z,95796.80
2019-06-26T21:16:40.465Z,95789.96
2019-06-26T21:19:07.926Z,95795.04
2019-06-26T21:21:35.292Z,95799.75
2019-06-26T21:24:02.678Z,95790.15
2019-06-26T21:26:30.092Z,95802.84
2019-06-26T21:29:00.692Z,95797.55
2019-06-26T21:31:26.876Z,95787.22
2019-06-26T21:33:54.269Z,95793.07
2019-06-26T21:36:21.631Z,95789.78
2019-06-26T21:38:49.020Z,95789.51
2019-06-26T21:41:16.515Z,95797.77
2019-06-26T21:43:43.910Z,95809.83
2019-06-26T21:46:11.335Z,95795.05
2019-06-26T21:48:38.735Z,95793.20
2019-06-26T21:51:06.237Z,95787.02
2019-06-26T21:53:33.826Z,95788.54
2019-06-26T21:56:01.221Z,95801.58
2019-06-26T21:58:28.619Z,95791.56
2019-06-26T22:00:56.305Z,95784.73
2019-06-26T22:03:23.958Z,95789.38
2019-06-26T22:05:51.369Z,95783.34
2019-06-26T22:08:18.796Z,95790.30
2019-06-26T22:10:46.264Z,95788.12
2019-06-26T22:13:13.709Z,95785.13
2019-06-26T22:15:41.113Z,95778.16
2019-06-26T22:18:08.629Z,95788.75
2019-06-26T22:20:35.993Z,95777.87
2019-06-26T22:23:03.371Z,95783.03
2019-06-26T22:25:30.779Z,95789.42
2019-06-26T22:27:58.283Z,95781.27
2019-06-26T22:30:26.065Z,95770.11
2019-06-26T22:32:53.443Z,95769.66
2019-06-26T22:35:20.924Z,95772.67
2019-06-26T22:37:48.313Z,95767.16
2019-06-26T22:40:15.985Z,95762.15
2019-06-26T22:42:43.390Z,95761.64
2019-06-26T22:45:11.202Z,95764.14
2019-06-26T22:47:38.589Z,95767.73
2019-06-26T22:50:06.347Z,95763.81
2019-06-26T22:52:33.740Z,95759.06
2019-06-26T22:55:01.225Z,95753.36
2019-06-26T22:57:28.620Z,95750.13
2019-06-26T22:59:56.089Z,95754.38
2019-06-26T23:02:23.484Z,95755.28
2019-06-26T23:04:50.880Z,95756.19
2019-06-26T23:07:18.285Z,95747.87
2019-06-26T23:09:45.666Z,95760.20
2019-06-26T23:12:13.123Z,95752.96
2019-06-26T23:14:40.533Z,95747.22
2019-06-26T23:17:07.938Z,95752.38
2019-06-26T23:19:35.409Z,95749.23
2019-06-26T23:22:02.815Z,95753.34
2019-06-26T23:24:30.174Z,95752.75
2019-06-26T23:26:57.574Z,95748.64
2019-06-26T23:29:24.964Z,95749.98
2019-06-26T23:31:52.353Z,95740.70
2019-06-26T23:34:19.759Z,95735.67
2019-06-26T23:36:47.163Z,95749.97
2019-06-26T23:39:14.562Z,95740.12
2019-06-26T23:41:41.952Z,95749.09
2019-06-26T23:44:09.371Z,95738.73
2019-06-26T23:46:36.751Z,95739.41
2019-06-26T23:49:04.246Z,95739.58
2019-06-26T23:51:31.645Z,95743.83
2019-06-26T23:53:59.530Z,95739.77
2019-06-26T23:56:39.971Z,95744.16
2019-06-26T23:58:56.445Z,95744.80
